Time;durP1;ratioP1;P1;durP2;ratioP2;P2;SDS_P1;SDS_P2;PMS_P1;PMS_P2;Temp;Humidity;BMP_temperature;BMP_pressure;BME280_temperature;BME280_humidity;BME280_pressure;Samples;Min_cycle;Max_cycle;Signal;HPM_P1;HPM_P2
2023/05/14 00:01:06;;;;;;;0.50;0.50;;;;;;;14.87;76.25;100070.41;5049005;28;20238;-67
2023/05/14 00:03:32;;;;;;;0.40;0.40;;;;;;;14.92;75.66;100060.78;5050262;28;20203;-68
2023/05/14 00:05:59;;;;;;;0.40;0.40;;;;;;;14.90;76.07;100059.97;5050454;28;20253;-67
2023/05/14 00:08:27;;;;;;;0.50;0.50;;;;;;;14.93;76.05;100059.88;5050595;28;20562;-68
2023/05/14 00:10:54;;;;;;;0.50;0.50;;;;;;;14.97;76.03;100064.03;5050385;28;20201;-67
2023/05/14 00:13:21;;;;;;;0.50;0.50;;;;;;;15.03;76.17;100053.47;5050538;28;20214;-68
2023/05/14 00:15:48;;;;;;;0.40;0.40;;;;;;;14.97;75.58;100040.78;5050166;28;20200;-67
2023/05/14 00:18:14;;;;;;;0.50;0.50;;;;;;;14.90;75.49;100052.22;5050278;28;20257;-67
2023/05/14 00:20:41;;;;;;;0.40;0.40;;;;;;;14.85;76.05;100054.16;5050177;28;20286;-68
2023/05/14 00:23:08;;;;;;;0.50;0.50;;;;;;;14.75;76.62;100050.22;5049962;28;20667;-67
2023/05/14 00:25:36;;;;;;;0.70;0.70;;;;;;;14.65;77.28;100050.56;5050340;28;20200;-67
2023/05/14 00:28:03;;;;;;;0.47;0.47;;;;;;;14.49;77.87;100044.28;5049818;28;20199;-67
2023/05/14 00:30:30;;;;;;;0.43;0.43;;;;;;;14.39;78.86;100047.22;5049882;28;20205;-68
2023/05/14 00:32:57;;;;;;;0.50;0.50;;;;;;;14.22;79.25;100050.38;5049581;28;20703;-68
2023/05/14 00:35:24;;;;;;;0.50;0.50;;;;;;;14.24;79.68;100047.75;5049904;28;20215;-68
2023/05/14 00:37:50;;;;;;;0.40;0.40;;;;;;;14.26;79.51;100056.25;5050075;28;20197;-67
2023/05/14 00:40:17;;;;;;;0.60;0.60;;;;;;;14.25;79.59;100049.44;5048575;28;20203;-67
2023/05/14 00:42:45;;;;;;;0.40;0.40;;;;;;;14.20;79.66;100054.75;5050119;28;20251;-67
2023/05/14 00:45:12;;;;;;;0.50;0.50;;;;;;;14.08;80.35;100048.28;5050211;28;20266;-67
2023/05/14 00:47:39;;;;;;;0.57;0.57;;;;;;;14.05;80.62;100030.34;5049929;28;20208;-67
2023/05/14 00:50:07;;;;;;;0.60;0.60;;;;;;;13.96;81.59;100027.22;5049845;28;20603;-67
2023/05/14 00:52:34;;;;;;;0.50;0.50;;;;;;;14.03;81.66;100028.69;5049690;28;20229;-67
2023/05/14 00:55:03;;;;;;;0.47;0.47;;;;;;;13.97;81.83;100028.91;5049918;28;20584;-68
2023/05/14 00:57:30;;;;;;;0.50;0.50;;;;;;;13.98;81.83;100020.28;5049811;28;20639;-67
2023/05/14 01:00:00;;;;;;;0.60;0.60;;;;;;;14.08;81.59;100021.66;5053145;28;20667;-68
2023/05/14 01:02:27;;;;;;;0.60;0.60;;;;;;;14.07;81.08;100012.22;5052373;28;20207;-67
2023/05/14 01:04:54;;;;;;;0.50;0.50;;;;;;;14.00;81.88;100023.63;5053272;28;20220;-67
2023/05/14 01:07:29;;;;;;;0.53;0.53;;;;;;;14.14;81.27;100016.28;5052979;28;20202;-67
2023/05/14 01:10:01;;;;;;;0.60;0.60;;;;;;;14.24;81.21;100012.50;5053726;28;20561;-68
2023/05/14 01:12:37;;;;;;;0.40;0.40;;;;;;;14.28;81.23;99998.56;5053468;28;20274;-67
2023/05/14 01:15:10;;;;;;;0.47;0.47;;;;;;;14.33;81.01;99995.84;5051850;28;20202;-67
2023/05/14 01:17:42;;;;;;;0.50;0.50;;;;;;;14.36;81.44;100006.06;5053180;28;20271;-67
2023/05/14 01:20:09;;;;;;;0.50;0.50;;;;;;;14.33;81.20;99975.19;5053052;28;20261;-67
2023/05/14 01:22:37;;;;;;;0.50;0.50;;;;;;;14.46;81.01;99997.97;5052634;28;20314;-67
2023/05/14 01:25:05;;;;;;;0.60;0.60;;;;;;;14.52;80.32;99997.72;5053399;28;20682;-67
2023/05/14 01:27:41;;;;;;;0.40;0.40;;;;;;;14.52;80.21;99997.72;5053354;28;20256;-68
2023/05/14 01:30:17;;;;;;;0.50;0.50;;;;;;;14.47;79.43;100002.22;5053313;28;20588;-67
2023/05/14 01:32:47;;;;;;;0.57;0.57;;;;;;;14.40;79.19;100003.34;5051440;28;20196;-67
2023/05/14 01:35:14;;;;;;;0.60;0.60;;;;;;;14.33;79.04;99995.84;5053064;28;20200;-68
2023/05/14 01:37:44;;;;;;;0.40;0.40;;;;;;;14.24;79.22;99978.97;5052568;28;20194;-68
2023/05/14 01:40:11;;;;;;;0.50;0.50;;;;;;;14.20;79.45;99993.69;5053131;28;20751;-67
2023/05/14 01:42:38;;;;;;;0.50;0.50;;;;;;;14.06;79.25;99982.19;5052770;28;20261;-67
2023/05/14 01:45:06;;;;;;;0.40;0.40;;;;;;;14.10;79.97;99983.75;5052627;28;20258;-67
2023/05/14 01:47:33;;;;;;;0.50;0.50;;;;;;;14.07;79.53;99981.28;5051569;28;20208;-67
2023/05/14 01:49:59;;;;;;;0.50;0.50;;;;;;;14.09;79.13;99987.22;5052570;28;20236;-67
2023/05/14 01:52:26;;;;;;;0.40;0.40;;;;;;;13.90;79.43;99975.88;5052716;28;20198;-67
2023/05/14 01:54:54;;;;;;;0.50;0.50;;;;;;;13.95;79.43;99989.47;5052501;28;20213;-67
2023/05/14 01:57:21;;;;;;;0.50;0.50;;;;;;;13.89;79.26;99979.34;5052160;28;20292;-68
2023/05/14 01:59:48;;;;;;;0.50;0.50;;;;;;;13.91;79.35;99987.88;5052751;28;20296;-67
2023/05/14 02:02:15;;;;;;;0.53;0.53;;;;;;;13.85;79.87;99982.94;5052894;28;20208;-67
2023/05/14 02:04:41;;;;;;;0.50;0.50;;;;;;;13.85;79.26;99988.09;5052709;28;20221;-67
2023/05/14 02:07:08;;;;;;;0.60;0.60;;;;;;;13.91;78.76;99983.56;5052977;28;20201;-67
2023/05/14 02:09:35;;;;;;;0.43;0.43;;;;;;;13.89;78.81;99994.81;5052311;28;20673;-68
2023/05/14 02:12:03;;;;;;;0.50;0.50;;;;;;;13.89;78.62;99990.50;5052512;28;20266;-67
2023/05/14 02:14:29;;;;;;;0.40;0.40;;;;;;;13.90;78.40;99999.91;5052237;28;20216;-67
2023/05/14 02:16:56;;;;;;;0.67;0.67;;;;;;;13.96;78.04;100001.44;5052296;28;20203;-67
2023/05/14 02:19:23;;;;;;;0.40;0.40;;;;;;;14.02;78.00;100001.25;5052441;28;20608;-68
2023/05/14 02:21:50;;;;;;;0.50;0.50;;;;;;;14.09;77.29;100002.69;5051929;28;20263;-67
2023/05/14 02:24:17;;;;;;;0.37;0.37;;;;;;;14.15;77.13;100007.66;5052431;28;20580;-67
2023/05/14 02:26:43;;;;;;;0.40;0.40;;;;;;;14.11;76.59;100006.06;5052084;28;20192;-67
2023/05/14 02:29:11;;;;;;;0.43;0.43;;;;;;;14.04;76.24;99994.28;5052306;28;20225;-67
2023/05/14 02:31:38;;;;;;;0.30;0.30;;;;;;;13.89;77.14;99994.81;5052026;28;20247;-67
2023/05/14 02:34:06;;;;;;;0.60;0.60;;;;;;;13.80;77.84;99995.97;5052060;28;20316;-67
2023/05/14 02:36:33;;;;;;;0.67;0.67;;;;;;;13.72;78.06;99997.13;5052299;28;20227;-67
2023/05/14 02:39:00;;;;;;;0.47;0.47;;;;;;;13.78;78.49;100000.34;5052042;28;20204;-67
2023/05/14 02:41:27;;;;;;;0.60;0.60;;;;;;;13.82;78.40;99998.50;5052098;28;20204;-67
2023/05/14 02:43:54;;;;;;;0.60;0.60;;;;;;;13.72;78.79;100012.56;5051676;28;20196;-67
2023/05/14 02:46:22;;;;;;;0.70;0.70;;;;;;;13.79;78.69;100014.06;5051993;28;20664;-67
2023/05/14 02:48:49;;;;;;;0.50;0.50;;;;;;;13.92;78.64;100020.50;5051535;28;20575;-67
2023/05/14 02:51:16;;;;;;;0.40;0.40;;;;;;;13.93;78.17;100020.44;5051831;28;20258;-67
2023/05/14 02:53:42;;;;;;;0.50;0.50;;;;;;;14.08;77.86;100037.13;5051108;28;20311;-67
2023/05/14 02:56:09;;;;;;;0.40;0.40;;;;;;;14.11;78.23;100037.03;5051546;28;21020;-68
2023/05/14 02:58:36;;;;;;;0.50;0.50;;;;;;;14.20;77.38;100031.53;5050905;28;20289;-67
2023/05/14 03:01:02;;;;;;;0.60;0.60;;;;;;;14.20;77.72;100040.13;5051099;28;20250;-67
2023/05/14 03:03:31;;;;;;;0.60;0.60;;;;;;;14.24;76.92;100043.44;5051628;28;20200;-67
2023/05/14 03:05:58;;;;;;;0.50;0.50;;;;;;;14.28;76.52;100055.31;5051337;28;20699;-67
2023/05/14 03:08:24;;;;;;;0.50;0.50;;;;;;;14.24;76.54;100033.13;5051673;28;20209;-67
2023/05/14 03:10:51;;;;;;;0.47;0.47;;;;;;;14.40;76.22;100052.34;5051241;28;20689;-67
2023/05/14 03:13:19;;;;;;;0.50;0.50;;;;;;;14.44;76.24;100059.06;5051348;28;20647;-67
2023/05/14 03:15:47;;;;;;;0.50;0.50;;;;;;;14.42;75.29;100047.13;5050873;28;20200;-67
2023/05/14 03:18:14;;;;;;;0.60;0.60;;;;;;;14.44;74.82;100048.75;5049901;28;20203;-68
2023/05/14 03:20:42;;;;;;;0.50;0.50;;;;;;;14.29;74.95;100010.56;5050607;28;20252;-67
2023/05/14 03:23:09;;;;;;;0.60;0.60;;;;;;;14.52;75.15;100044.16;5050618;28;20214;-67
2023/05/14 03:25:35;;;;;;;0.43;0.43;;;;;;;14.52;74.95;100044.16;5050831;28;20277;-68
2023/05/14 03:28:02;;;;;;;0.43;0.43;;;;;;;14.53;75.16;100047.59;5050641;28;20334;-67
2023/05/14 03:30:29;;;;;;;0.60;0.60;;;;;;;14.44;75.15;100047.94;5050957;28;20201;-67
2023/05/14 03:32:56;;;;;;;0.50;0.50;;;;;;;14.39;74.94;100053.25;5051097;28;20584;-67
2023/05/14 03:35:23;;;;;;;0.50;0.50;;;;;;;14.38;74.25;100043.00;5051168;28;20216;-68
2023/05/14 03:37:51;;;;;;;0.40;0.40;;;;;;;14.36;74.83;100042.19;5049950;28;20195;-67
2023/05/14 03:40:18;;;;;;;0.40;0.40;;;;;;;14.47;75.16;100060.72;5050779;28;20208;-67
2023/05/14 03:42:45;;;;;;;0.60;0.60;;;;;;;14.43;75.56;100052.25;5051204;28;20194;-67
2023/05/14 03:45:11;;;;;;;0.60;0.60;;;;;;;14.57;76.02;100068.06;5050339;28;20204;-67
2023/05/14 03:47:38;;;;;;;0.60;0.60;;;;;;;14.61;75.49;100074.78;5050653;28;20257;-67
2023/05/14 03:50:06;;;;;;;0.60;0.60;;;;;;;14.65;75.02;100067.78;5050153;28;20635;-67
2023/05/14 03:52:32;;;;;;;0.50;0.50;;;;;;;14.68;75.88;100067.69;5050812;28;20259;-68
2023/05/14 03:55:00;;;;;;;0.50;0.50;;;;;;;14.70;75.32;100077.03;5050125;28;20267;-68
2023/05/14 03:57:27;;;;;;;0.50;0.50;;;;;;;14.73;75.27;100064.03;5050577;28;20678;-67
2023/05/14 03:59:54;;;;;;;0.60;0.60;;;;;;;14.76;74.75;100057.94;5050617;28;20207;-68
2023/05/14 04:02:21;;;;;;;0.50;0.50;;;;;;;14.54;75.03;100047.53;5050435;28;20254;-67
2023/05/14 04:04:47;;;;;;;0.30;0.30;;;;;;;14.43;75.28;100059.97;5050780;28;20738;-67
2023/05/14 04:07:14;;;;;;;0.40;0.40;;;;;;;14.42;75.59;100052.28;5050394;28;20207;-67
2023/05/14 04:09:41;;;;;;;0.50;0.50;;;;;;;14.35;76.77;100049.06;5051052;28;20200;-68
2023/05/14 04:12:09;;;;;;;0.60;0.60;;;;;;;14.35;76.86;100056.81;5050577;28;20206;-67
2023/05/14 04:14:36;;;;;;;0.50;0.50;;;;;;;14.40;77.97;100049.78;5050156;28;20215;-67
2023/05/14 04:17:03;;;;;;;0.40;0.40;;;;;;;14.52;77.15;100057.06;5050165;28;20258;-68
2023/05/14 04:19:29;;;;;;;0.50;0.50;;;;;;;14.60;77.96;100057.63;5050209;28;20268;-67
2023/05/14 04:21:56;;;;;;;0.50;0.50;;;;;;;14.57;77.51;100060.31;5050309;28;20266;-67
2023/05/14 04:24:23;;;;;;;0.50;0.50;;;;;;;14.58;77.70;100059.44;5049783;28;20203;-68
2023/05/14 04:26:49;;;;;;;0.40;0.40;;;;;;;14.55;77.19;100058.69;5050198;28;20573;-67
2023/05/14 04:29:17;;;;;;;0.40;0.40;;;;;;;14.46;77.80;100049.56;5050107;28;20203;-67
2023/05/14 04:31:45;;;;;;;0.60;0.60;;;;;;;14.44;78.21;100045.34;5050483;28;20203;-67
2023/05/14 04:34:11;;;;;;;0.47;0.47;;;;;;;14.49;78.94;100064.91;5053838;28;20608;-67
2023/05/14 04:36:38;;;;;;;0.90;0.90;;;;;;;14.60;78.33;100067.94;5054604;28;20200;-67
2023/05/14 04:39:05;;;;;;;0.50;0.50;;;;;;;14.73;77.44;100069.19;5054164;28;20205;-68
2023/05/14 04:41:32;;;;;;;0.60;0.60;;;;;;;14.63;77.83;100049.78;5054070;28;20293;-68
2023/05/14 04:44:00;;;;;;;0.50;0.50;;;;;;;14.76;77.76;100075.16;5054001;28;20200;-67
2023/05/14 04:46:28;;;;;;;0.40;0.40;;;;;;;14.65;77.01;100066.06;5053665;28;20235;-67
2023/05/14 04:48:56;;;;;;;0.50;0.50;;;;;;;14.63;77.41;100075.59;5048679;28;20196;-67
2023/05/14 04:51:23;;;;;;;0.40;0.40;;;;;;;14.54;78.00;100088.81;5054187;28;20690;-67
2023/05/14 04:53:50;;;;;;;0.63;0.63;;;;;;;14.53;78.34;100089.72;5053821;28;20734;-67
2023/05/14 04:56:16;;;;;;;0.30;0.30;;;;;;;14.56;79.01;100094.78;5053909;28;20254;-68
2023/05/14 04:58:43;;;;;;;0.40;0.40;;;;;;;14.61;78.47;100090.28;5053893;28;20206;-67
2023/05/14 05:01:10;;;;;;;0.50;0.50;;;;;;;14.43;77.77;100083.19;5053716;28;20195;-68
2023/05/14 05:03:38;;;;;;;0.53;0.53;;;;;;;14.36;80.03;100066.25;5053175;28;20200;-67
2023/05/14 05:06:05;;;;;;;0.50;0.50;;;;;;;14.35;81.42;100061.97;5053701;28;20284;-67
2023/05/14 05:08:31;;;;;;;0.47;0.47;;;;;;;14.29;82.65;100072.47;5053531;28;20557;-67
2023/05/14 05:10:58;;;;;;;0.50;0.50;;;;;;;14.22;82.62;100085.66;5053289;28;20634;-67
2023/05/14 05:13:24;;;;;;;0.50;0.50;;;;;;;14.25;83.36;100076.03;5054190;28;20208;-67
2023/05/14 05:15:51;;;;;;;0.67;0.67;;;;;;;14.34;85.20;100080.94;5053181;28;20278;-67
2023/05/14 05:18:18;;;;;;;0.50;0.50;;;;;;;14.33;83.97;100084.41;5053366;28;20254;-68
2023/05/14 05:20:46;;;;;;;0.50;0.50;;;;;;;14.36;83.66;100089.47;5052377;28;20731;-67
2023/05/14 05:23:13;;;;;;;0.80;0.80;;;;;;;14.32;82.16;100076.69;5053450;28;20204;-68
2023/05/14 05:25:40;;;;;;;0.50;0.50;;;;;;;14.29;82.92;100093.09;5053497;28;20209;-67
2023/05/14 05:28:06;;;;;;;0.50;0.50;;;;;;;14.36;83.13;100097.19;5053129;28;20230;-67
2023/05/14 05:30:33;;;;;;;0.67;0.67;;;;;;;14.39;82.72;100098.81;5053373;28;20261;-67
2023/05/14 05:33:00;;;;;;;1.07;1.07;;;;;;;14.41;82.54;100104.78;5053271;28;20565;-68
2023/05/14 05:35:27;;;;;;;0.50;0.50;;;;;;;14.43;82.26;100096.09;5053580;28;20697;-68
2023/05/14 05:37:55;;;;;;;0.80;0.80;;;;;;;14.37;82.58;100101.47;5053207;28;20219;-67
2023/05/14 05:40:21;;;;;;;0.40;0.40;;;;;;;14.38;82.72;100113.44;5048688;28;20197;-69
2023/05/14 05:42:48;;;;;;;0.87;0.87;;;;;;;14.35;82.56;100103.25;5052680;28;20649;-67
2023/05/14 05:45:15;;;;;;;0.47;0.47;;;;;;;14.37;82.60;100104.06;5052443;28;20756;-67
2023/05/14 05:47:41;;;;;;;0.50;0.50;;;;;;;14.50;83.09;100113.06;5053338;28;20278;-68
2023/05/14 05:50:09;;;;;;;0.40;0.40;;;;;;;14.48;83.48;100109.66;5052514;28;20581;-67
2023/05/14 05:52:36;;;;;;;0.50;0.50;;;;;;;14.52;83.52;100119.00;5052759;28;20207;-68
2023/05/14 05:55:05;;;;;;;0.50;0.50;;;;;;;14.61;83.37;100110.06;5052841;28;20684;-68
2023/05/14 05:57:31;;;;;;;0.80;0.80;;;;;;;14.65;83.37;100133.16;5052717;28;20734;-67
2023/05/14 05:59:58;;;;;;;0.60;0.60;;;;;;;14.61;83.31;100134.16;5052645;28;20205;-68
2023/05/14 06:02:25;;;;;;;0.50;0.50;;;;;;;14.60;82.36;100132.44;5052535;28;20276;-67
2023/05/14 06:04:52;;;;;;;0.40;0.40;;;;;;;14.55;83.13;100136.94;5052672;28;20220;-68
2023/05/14 06:07:18;;;;;;;0.60;0.60;;;;;;;14.43;82.74;100127.06;5052675;28;20204;-67
2023/05/14 06:09:45;;;;;;;0.70;0.70;;;;;;;14.56;82.62;100151.53;5052180;28;20199;-68
2023/05/14 06:12:13;;;;;;;0.47;0.47;;;;;;;14.55;82.63;100157.59;5052109;28;20201;-68
2023/05/14 06:14:40;;;;;;;0.50;0.50;;;;;;;14.52;83.52;100160.28;5052478;28;20222;-68
2023/05/14 06:17:07;;;;;;;0.60;0.60;;;;;;;14.56;84.17;100158.44;5052317;28;20232;-68
2023/05/14 06:19:34;;;;;;;0.40;0.40;;;;;;;14.53;82.93;100168.88;5049431;28;20250;-67
2023/05/14 06:22:01;;;;;;;0.73;0.73;;;;;;;14.54;82.88;100166.22;5052225;28;20243;-67
2023/05/14 06:24:28;;;;;;;0.60;0.60;;;;;;;14.60;83.17;100171.16;5051998;28;20280;-67
2023/05/14 06:26:55;;;;;;;0.50;0.50;;;;;;;14.70;83.24;100171.72;5051842;28;20264;-68
2023/05/14 06:29:23;;;;;;;0.40;0.40;;;;;;;14.81;83.52;100177.34;5052089;28;20204;-68
2023/05/14 06:31:49;;;;;;;0.63;0.63;;;;;;;14.93;83.08;100183.78;5051735;28;20206;-68
2023/05/14 06:34:16;;;;;;;0.60;0.60;;;;;;;14.98;82.63;100187.06;5051728;28;20204;-68
2023/05/14 06:36:43;;;;;;;0.50;0.50;;;;;;;14.98;83.93;100189.66;5051674;28;20289;-67
2023/05/14 06:39:11;;;;;;;0.67;0.67;;;;;;;15.14;84.90;100203.69;5051533;28;20205;-68
2023/05/14 06:41:38;;;;;;;0.50;0.50;;;;;;;15.19;84.65;100206.94;5051638;28;20607;-67
2023/05/14 06:44:05;;;;;;;0.40;0.40;;;;;;;15.24;86.74;100215.38;5051570;28;20238;-68
2023/05/14 06:46:33;;;;;;;0.63;0.63;;;;;;;15.29;87.52;100226.38;5051748;28;20280;-68
2023/05/14 06:49:00;;;;;;;0.50;0.50;;;;;;;15.37;88.81;100232.13;5051100;28;20262;-68
2023/05/14 06:51:26;;;;;;;0.40;0.40;;;;;;;15.42;93.58;100235.38;5051287;28;20296;-68
2023/05/14 06:53:55;;;;;;;0.50;0.50;;;;;;;15.44;95.70;100227.59;5051188;28;20207;-68
2023/05/14 06:56:22;;;;;;;0.50;0.50;;;;;;;15.42;94.08;100225.03;5050122;28;20221;-67
2023/05/14 06:58:49;;;;;;;0.53;0.53;;;;;;;15.42;93.43;100227.63;5051619;28;20212;-67
2023/05/14 07:01:16;;;;;;;1.80;0.80;;;;;;;15.43;93.48;100229.31;5051217;28;20208;-67
2023/05/14 07:03:44;;;;;;;0.40;0.40;;;;;;;15.48;93.77;100221.41;5051392;28;20281;-66
2023/05/14 07:06:11;;;;;;;0.53;0.53;;;;;;;15.51;93.38;100219.56;5050643;28;20200;-67
2023/05/14 07:08:38;;;;;;;0.50;0.50;;;;;;;15.37;94.02;100190.78;5051059;28;20204;-67
2023/05/14 07:11:05;;;;;;;0.80;0.80;;;;;;;15.19;94.98;100176.81;5050849;28;20200;-67
2023/05/14 07:13:31;;;;;;;0.50;0.50;;;;;;;15.33;96.17;100204.72;5051530;28;20282;-67
2023/05/14 07:15:58;;;;;;;0.50;0.50;;;;;;;15.35;97.07;100208.06;5051230;28;20262;-67
2023/05/14 07:18:25;;;;;;;0.40;0.40;;;;;;;15.38;98.25;100205.38;5050224;28;20299;-68
2023/05/14 07:20:53;;;;;;;0.50;0.50;;;;;;;15.37;98.74;100190.78;5050850;28;20235;-67
2023/05/14 07:23:19;;;;;;;0.50;0.50;;;;;;;15.27;98.90;100188.59;5050827;28;20744;-68
2023/05/14 07:25:46;;;;;;;0.50;0.50;;;;;;;15.25;99.85;100192.06;5051180;28;20623;-68
2023/05/14 07:28:13;;;;;;;0.47;0.47;;;;;;;15.27;100.00;100186.00;5051089;28;20273;-67
2023/05/14 07:30:40;;;;;;;0.50;0.50;;;;;;;15.24;100.00;100179.22;5050919;28;20204;-68
2023/05/14 07:33:06;;;;;;;0.40;0.40;;;;;;;15.05;100.00;100167.88;5051085;28;20196;-68
2023/05/14 07:35:33;;;;;;;0.47;0.47;;;;;;;15.08;100.00;100172.94;5045324;28;20228;-68
2023/05/14 07:38:01;;;;;;;0.60;0.60;;;;;;;15.08;100.00;100180.69;5046449;28;20203;-68
2023/05/14 07:40:28;;;;;;;0.70;0.70;;;;;;;15.10;100.00;100186.63;5050388;28;20230;-68
2023/05/14 07:42:55;;;;;;;0.50;0.50;;;;;;;15.13;100.00;100192.53;5050627;28;20265;-68
2023/05/14 07:45:24;;;;;;;0.40;0.40;;;;;;;15.14;100.00;100198.53;5051062;28;20195;-68
2023/05/14 07:47:50;;;;;;;0.50;0.50;;;;;;;15.18;100.00;100200.13;5050040;28;20273;-68
2023/05/14 07:50:18;;;;;;;0.70;0.70;;;;;;;15.22;100.00;100204.25;5050756;28;20285;-68
2023/05/14 07:52:44;;;;;;;0.70;0.70;;;;;;;15.26;100.00;100213.59;5050391;28;20250;-69
2023/05/14 07:55:13;;;;;;;0.50;0.50;;;;;;;15.24;100.00;100216.25;5050619;28;20728;-69
2023/05/14 07:57:40;;;;;;;0.50;0.50;;;;;;;15.19;100.00;100199.19;5050456;28;20209;-69
2023/05/14 08:00:07;;;;;;;0.40;0.40;;;;;;;14.98;100.00;100179.31;5050580;28;20197;-69
2023/05/14 08:02:34;;;;;;;0.60;0.60;;;;;;;14.87;100.00;100173.69;5050210;28;20292;-68
2023/05/14 08:05:01;;;;;;;0.50;0.50;;;;;;;14.86;100.00;100177.19;5050375;28;20219;-69
2023/05/14 08:07:28;;;;;;;0.50;0.50;;;;;;;14.54;100.00;100160.25;5049845;28;20211;-69
2023/05/14 08:09:56;;;;;;;0.50;0.50;;;;;;;14.55;100.00;100178.22;5050337;28;20233;-69
2023/05/14 08:12:24;;;;;;;0.33;0.33;;;;;;;14.50;100.00;100200.78;5050572;28;20259;-69
2023/05/14 08:14:54;;;;;;;0.40;0.40;;;;;;;14.50;100.00;100210.25;5049855;28;20227;-69
2023/05/14 08:17:21;;;;;;;0.60;0.60;;;;;;;14.49;100.00;100219.72;5050303;28;20205;-69
2023/05/14 08:19:48;;;;;;;0.50;0.50;;;;;;;14.38;100.00;100226.13;5050399;28;20208;-69
2023/05/14 08:22:15;;;;;;;0.53;0.53;;;;;;;14.43;100.00;100239.72;5050285;28;20203;-70
2023/05/14 08:24:42;;;;;;;0.50;0.50;;;;;;;14.42;100.00;100246.59;5050413;28;20684;-70
2023/05/14 08:27:08;;;;;;;0.50;0.50;;;;;;;14.53;100.00;100252.28;5049353;28;20200;-70
2023/05/14 08:29:36;;;;;;;0.80;0.80;;;;;;;14.61;100.00;100263.19;5050385;28;20215;-70
2023/05/14 08:32:04;;;;;;;0.40;0.40;;;;;;;14.66;100.00;100263.88;5050360;28;20197;-69
2023/05/14 08:34:30;;;;;;;0.53;0.53;;;;;;;14.64;100.00;100262.22;5049988;28;20251;-69
2023/05/14 08:36:58;;;;;;;1.13;1.13;;;;;;;14.66;100.00;100268.19;5049617;28;20213;-69
2023/05/14 08:39:25;;;;;;;0.50;0.50;;;;;;;14.70;100.00;100264.63;5050444;28;20199;-70
2023/05/14 08:41:52;;;;;;;0.57;0.57;;;;;;;14.69;100.00;100274.09;5050252;28;20208;-69
2023/05/14 08:44:20;;;;;;;0.40;0.40;;;;;;;14.65;100.00;100262.19;5050198;28;20196;-69
2023/05/14 08:46:51;;;;;;;0.40;0.40;;;;;;;14.73;100.00;100270.50;5041960;28;20197;-69
2023/05/14 08:49:26;;;;;;;0.60;0.60;;;;;;;14.62;100.00;100257.13;5048236;28;20212;-69
2023/05/14 08:51:53;;;;;;;0.30;0.30;;;;;;;14.68;100.00;100276.72;5049443;28;20202;-68
2023/05/14 08:54:22;;;;;;;0.60;0.60;;;;;;;14.42;100.00;100258.66;5049155;28;20197;-69
2023/05/14 08:56:52;;;;;;;0.43;0.43;;;;;;;14.47;100.00;100262.81;5049848;28;20603;-69
2023/05/14 08:59:18;;;;;;;0.40;0.40;;;;;;;14.33;100.00;100244.34;5044358;28;20199;-69
2023/05/14 09:01:48;;;;;;;0.50;0.50;;;;;;;14.35;100.00;100241.69;5049652;28;20720;-68
2023/05/14 09:04:16;;;;;;;0.80;0.80;;;;;;;14.26;100.00;100236.78;5049740;28;20229;-68
2023/05/14 09:06:44;;;;;;;0.60;0.60;;;;;;;14.17;100.00;100233.63;5049673;28;20291;-68
2023/05/14 09:09:11;;;;;;;0.40;0.40;;;;;;;14.20;100.00;100236.13;5049046;28;20205;-68
2023/05/14 09:11:41;;;;;;;0.50;0.50;;;;;;;14.14;100.00;100238.03;5049638;28;20205;-68
2023/05/14 09:14:08;;;;;;;0.47;0.47;;;;;;;14.19;100.00;100243.88;5049455;28;20200;-68
2023/05/14 09:16:36;;;;;;;0.40;0.40;;;;;;;14.27;100.00;100243.66;5049521;28;20228;-68
2023/05/14 09:19:05;;;;;;;0.60;0.60;;;;;;;14.37;100.00;100239.91;5049240;28;20209;-67
2023/05/14 09:21:32;;;;;;;0.47;0.47;;;;;;;14.50;100.00;100247.22;5053528;28;20214;-68
2023/05/14 09:23:58;;;;;;;0.77;0.77;;;;;;;14.45;100.00;100249.09;5053160;28;20258;-68
2023/05/14 09:26:26;;;;;;;0.40;0.40;;;;;;;14.52;100.00;100244.56;5052804;28;20255;-68
2023/05/14 09:28:59;;;;;;;0.60;0.60;;;;;;;14.58;100.00;100234.91;5049997;28;20557;-68
2023/05/14 09:31:26;;;;;;;0.80;0.80;;;;;;;14.63;100.00;100233.03;5053126;28;20213;-68
2023/05/14 09:33:55;;;;;;;0.53;0.53;;;;;;;14.44;100.00;100219.00;5052985;28;20197;-68
2023/05/14 09:36:25;;;;;;;0.60;0.60;;;;;;;14.59;100.00;100244.34;5052574;28;20243;-68
2023/05/14 09:38:55;;;;;;;0.40;0.40;;;;;;;14.57;100.00;100243.53;5053120;28;20199;-67
2023/05/14 09:41:23;;;;;;;0.50;0.50;;;;;;;14.64;100.00;100228.69;5052675;28;20259;-68
2023/05/14 09:43:50;;;;;;;0.60;0.60;;;;;;;14.46;100.00;100218.97;5052934;28;20208;-68
2023/05/14 09:46:17;;;;;;;0.50;0.50;;;;;;;14.46;100.00;100206.94;5052576;28;20200;-67
2023/05/14 09:48:45;;;;;;;0.60;0.60;;;;;;;14.53;100.00;100207.56;5053135;28;20675;-68
2023/05/14 09:51:12;;;;;;;0.40;0.40;;;;;;;14.50;100.00;100198.19;5052150;28;20235;-66
2023/05/14 09:53:43;;;;;;;0.50;0.50;;;;;;;14.40;100.00;100193.38;5052324;28;20192;-67
2023/05/14 09:56:10;;;;;;;0.50;0.50;;;;;;;14.45;100.00;100192.31;5052602;28;20223;-67
2023/05/14 09:58:37;;;;;;;0.50;0.50;;;;;;;14.49;100.00;100187.91;5053055;28;20254;-68
2023/05/14 10:01:04;;;;;;;0.33;0.33;;;;;;;14.54;100.00;100186.84;5053052;28;20198;-67
2023/05/14 10:03:31;;;;;;;0.70;0.70;;;;;;;14.43;100.00;100194.13;5052765;28;20643;-67
2023/05/14 10:06:04;;;;;;;0.40;0.40;;;;;;;14.28;100.00;100184.25;5051816;28;20901;-70
2023/05/14 10:08:35;;;;;;;0.50;0.50;;;;;;;14.44;100.00;100182.91;5050138;28;20262;-70
2023/05/14 10:11:06;;;;;;;0.60;0.60;;;;;;;14.56;100.00;100194.56;5050640;28;20192;-71
2023/05/14 10:13:39;;;;;;;0.50;0.50;;;;;;;14.50;100.00;100182.72;5050565;28;20200;-71
2023/05/14 10:16:11;;;;;;;0.50;0.50;;;;;;;14.23;100.00;100170.69;5050841;28;20219;-71
2023/05/14 10:18:44;;;;;;;0.50;0.50;;;;;;;14.27;100.00;100187.75;5050416;28;20208;-71
2023/05/14 10:21:11;;;;;;;0.50;0.50;;;;;;;14.38;100.00;100193.41;5050995;28;20200;-71
2023/05/14 10:23:39;;;;;;;0.50;0.50;;;;;;;14.49;100.00;100198.22;5050617;28;20588;-71
2023/05/14 10:26:08;;;;;;;0.57;0.57;;;;;;;14.60;100.00;100186.66;5051584;28;20193;-71
2023/05/14 10:28:35;;;;;;;0.60;0.60;;;;;;;14.63;100.00;100186.56;5051675;28;20204;-72
2023/05/14 10:31:02;;;;;;;0.50;0.50;;;;;;;14.76;100.00;100178.41;5051068;28;20221;-73
2023/05/14 10:33:29;;;;;;;0.60;0.60;;;;;;;14.69;100.00;100160.53;5047678;28;20266;-73
2023/05/14 10:35:58;;;;;;;0.57;0.57;;;;;;;14.78;100.00;100179.19;5049888;28;20216;-73
2023/05/14 10:38:27;;;;;;;0.50;0.50;;;;;;;14.64;100.00;100157.25;5048080;28;20202;-73
2023/05/14 10:40:59;;;;;;;0.53;0.53;;;;;;;14.88;100.00;100159.88;5048750;28;20248;-73
2023/05/14 10:43:29;;;;;;;0.60;0.60;;;;;;;14.78;100.00;100141.31;5048899;28;20203;-73
2023/05/14 10:45:57;;;;;;;0.50;0.50;;;;;;;14.78;100.00;100143.03;5051233;28;20261;-73
2023/05/14 10:48:24;;;;;;;0.40;0.40;;;;;;;14.68;100.00;100135.63;5049379;28;20207;-71
2023/05/14 10:50:52;;;;;;;0.50;0.50;;;;;;;14.61;100.00;100123.81;5049764;28;20201;-73
2023/05/14 10:53:19;;;;;;;0.70;0.70;;;;;;;14.54;100.00;100122.34;5051467;28;20626;-70
2023/05/14 10:55:46;;;;;;;0.50;0.50;;;;;;;14.68;100.00;100127.88;5049752;28;20231;-70
2023/05/14 10:58:12;;;;;;;0.60;0.60;;;;;;;14.81;100.00;100127.44;5049476;28;20197;-69
2023/05/14 11:00:41;;;;;;;0.60;0.60;;;;;;;14.87;100.00;100138.38;5051198;28;20273;-70
2023/05/14 11:03:08;;;;;;;0.50;0.50;;;;;;;14.98;100.00;100130.25;5048010;28;20290;-70
2023/05/14 11:05:36;;;;;;;0.60;0.60;;;;;;;15.01;100.00;100135.31;5049573;28;20281;-70
2023/05/14 11:08:05;;;;;;;0.40;0.40;;;;;;;15.03;100.00;100136.09;5048758;28;20615;-69
2023/05/14 11:10:32;;;;;;;0.60;0.60;;;;;;;15.02;100.00;100127.53;5050417;28;20673;-69
2023/05/14 11:12:59;;;;;;;0.60;0.60;;;;;;;15.00;100.00;100128.47;5047542;28;20241;-70
2023/05/14 11:15:27;;;;;;;0.50;0.50;;;;;;;15.03;100.00;100103.38;5047243;28;20266;-70
2023/05/14 11:17:56;;;;;;;0.40;0.40;;;;;;;15.30;100.00;100109.25;5050437;28;20683;-70
2023/05/14 11:20:23;;;;;;;0.57;0.57;;;;;;;15.35;100.00;100109.09;5047513;28;20208;-71
2023/05/14 11:22:51;;;;;;;0.50;0.50;;;;;;;15.24;100.00;100114.66;5051063;28;20250;-71
2023/05/14 11:25:18;;;;;;;0.40;0.40;;;;;;;15.44;100.00;100113.91;5047682;28;20702;-70